Airfield :
LOGIN :

Register | Disclaimer

   EN    FR    IT 

 










Legend :    VFR   Marginal VFR   IFR   Intensive IFR   Very Intensive IFR
Visi :
Ceiling :
>= 8 km
>= 3000ft
5 to 8 km
1000 to 3000 ft
1500m to 5 km
500 to 1000 ft
800 to 1500m
200 to 500 ft
< 800m
< 200 ft
Symbols :   Thunderstorms  Fog  Heavy snow  Heavy precipitations  Wind > 20 kt
SIGMETs :     Misc.  Thunderstorms  Icing  Turbulence  Mountain Waves  Volcanic Ashes







- Airport Elevation : 424 ft
- IATA code : QGY


LHPR - Györ Per

CURRENT METAR :
  • 190145Z AUTO 24004KT CAVOK M04/M06 Q1021 RMK BLU

EXPIRED METARs :
  • 190115Z AUTO VRB02KT CAVOK M03/M06 Q1021 RMK BLU
  • 190045Z AUTO 29004KT 260V320 CAVOK M03/M06 Q1021 RMK BLU
  • 190015Z AUTO 26004KT 230V290 CAVOK M03/M06 Q1021 RMK BLU
  • 182345Z AUTO 27004KT 240V300 CAVOK M03/M06 Q1021 RMK BLU
  • 182315Z AUTO VRB03KT CAVOK M03/M06 Q1022 RMK BLU

TAF TAF LHPR
Valid from the 18 at 18:00 until the 19 at 03:00 UTC


181715Z 1818/1903 26006KT CAVOK
No reported NOTAMs for that airfield.



MET'MAP, your aeronautical weather chart ! - Copyright ORBIFLY December 2007 - Disclaimer

ORBIFLY MET'MAP TEAM :

Programming & Development : Alexandra Zaïnal
Concept & Development : Baudouin d'Aumeries
Co-Development & Prog : Marc-Olivier Méhu
Technical & hardware support : Manuel Goepfert

Contact : metmap@orbifly.com




SOURCES & CREDITS :

   NOAA